createdAt,value
2019-04-03T00:00:14.526Z,54.12
2019-04-03T00:02:43.343Z,53.66
2019-04-03T00:05:14.197Z,52.89
2019-04-03T00:07:43.699Z,53.47
2019-04-03T00:10:13.633Z,52.56
2019-04-03T00:12:42.810Z,52.13
2019-04-03T00:15:13.667Z,51.65
2019-04-03T00:17:45.299Z,51.75
2019-04-03T00:20:13.566Z,52.56
2019-04-03T00:22:42.456Z,52.08
2019-04-03T00:25:12.143Z,53.13
2019-04-03T00:27:41.261Z,53.09
2019-04-03T00:30:11.637Z,55.34
2019-04-03T00:32:40.477Z,54.17
2019-04-03T00:35:10.292Z,53.02
2019-04-03T00:37:39.180Z,53.18
2019-04-03T00:40:09.201Z,52.92
2019-04-03T00:42:38.089Z,52.70
2019-04-03T00:45:08.785Z,52.75
2019-04-03T00:47:38.944Z,52.62
2019-04-03T00:50:08.846Z,52.56
2019-04-03T00:52:37.647Z,53.05
2019-04-03T00:55:07.045Z,52.78
2019-04-03T00:57:35.990Z,53.28
2019-04-03T01:00:07.764Z,53.15
2019-04-03T01:02:38.230Z,53.94
2019-04-03T01:05:07.277Z,53.99
2019-04-03T01:07:36.270Z,53.19
2019-04-03T01:10:06.490Z,53.30
2019-04-03T01:12:35.439Z,54.09
2019-04-03T01:15:06.133Z,54.66
2019-04-03T01:17:35.265Z,54.34
2019-04-03T01:20:06.332Z,54.53
2019-04-03T01:22:37.263Z,54.18
2019-04-03T01:25:08.844Z,54.24
2019-04-03T01:27:37.798Z,54.46
2019-04-03T01:30:08.308Z,53.88
2019-04-03T01:32:37.317Z,54.13
2019-04-03T01:35:09.086Z,54.10
2019-04-03T01:37:37.146Z,54.64
2019-04-03T01:40:07.346Z,53.94
2019-04-03T01:42:36.164Z,55.05
2019-04-03T01:45:05.859Z,55.52
2019-04-03T01:47:34.652Z,55.86
2019-04-03T01:50:03.649Z,55.88
2019-04-03T01:52:32.541Z,55.89
2019-04-03T01:55:03.346Z,56.15
2019-04-03T01:57:31.961Z,57.02
2019-04-03T02:00:00.852Z,57.85
2019-04-03T02:02:29.743Z,59.69
2019-04-03T02:04:58.731Z,58.91
2019-04-03T02:07:27.527Z,58.95
2019-04-03T02:09:56.574Z,59.90
2019-04-03T02:12:25.411Z,61.61
2019-04-03T02:14:54.304Z,61.54
2019-04-03T02:17:23.891Z,60.46
2019-04-03T02:19:53.114Z,61.92
2019-04-03T02:22:22.003Z,62.09
2019-04-03T02:24:50.919Z,62.35
2019-04-03T02:27:19.781Z,63.93
2019-04-03T02:29:48.671Z,63.42
2019-04-03T02:32:17.568Z,65.10
2019-04-03T02:34:46.455Z,66.50
2019-04-03T02:37:17.005Z,67.27
2019-04-03T02:39:45.979Z,68.39
2019-04-03T02:42:14.875Z,69.56
2019-04-03T02:44:43.827Z,69.75
2019-04-03T02:47:12.799Z,69.19
2019-04-03T02:49:43.028Z,70.84
2019-04-03T02:52:12.326Z,70.78
2019-04-03T02:54:45.566Z,70.08
2019-04-03T02:57:17.394Z,70.40
2019-04-03T02:59:44.912Z,69.53
2019-04-03T03:02:13.802Z,69.77
2019-04-03T03:04:44.216Z,68.70
2019-04-03T03:07:13.296Z,70.41
2019-04-03T03:09:45.561Z,70.10
2019-04-03T03:12:13.143Z,71.23
2019-04-03T03:14:42.028Z,71.39
2019-04-03T03:17:11.824Z,71.21
2019-04-03T03:19:40.811Z,70.79
2019-04-03T03:22:11.574Z,70.36
2019-04-03T03:24:40.742Z,70.67
2019-04-03T03:27:11.352Z,71.66
2019-04-03T03:29:42.595Z,72.65
2019-04-03T03:32:18.798Z,72.75
2019-04-03T03:34:52.984Z,74.40
2019-04-03T03:37:14.827Z,73.50
2019-04-03T03:39:44.632Z,74.20
2019-04-03T03:42:14.885Z,74.44
2019-04-03T03:44:46.041Z,74.61
2019-04-03T03:47:15.843Z,73.31
2019-04-03T03:49:48.419Z,74.62
2019-04-03T03:52:17.002Z,74.03
2019-04-03T03:54:49.645Z,73.73
2019-04-03T03:57:17.825Z,73.08
2019-04-03T03:59:49.590Z,73.52
2019-04-03T04:02:17.798Z,73.50
2019-04-03T04:04:48.398Z,73.46
2019-04-03T04:07:17.629Z,74.63
2019-04-03T04:09:50.819Z,74.44
2019-04-03T04:12:19.701Z,74.01
2019-04-03T04:14:48.908Z,73.90
2019-04-03T04:17:18.954Z,73.44
2019-04-03T04:19:48.274Z,72.17
2019-04-03T04:22:21.169Z,72.18
2019-04-03T04:24:50.465Z,72.04
2019-04-03T04:27:19.673Z,70.62
2019-04-03T04:29:48.935Z,70.91
2019-04-03T04:32:17.868Z,70.49
2019-04-03T04:34:49.502Z,70.92
2019-04-03T04:37:17.417Z,71.21
2019-04-03T04:39:46.308Z,71.28
2019-04-03T04:42:15.201Z,71.10
2019-04-03T04:44:44.092Z,71.62
2019-04-03T04:47:15.060Z,72.46
2019-04-03T04:49:43.624Z,72.57
2019-04-03T04:52:12.750Z,72.54
2019-04-03T04:54:43.116Z,74.07
2019-04-03T04:57:13.367Z,73.42
2019-04-03T04:59:42.985Z,74.98
2019-04-03T05:02:13.811Z,74.29
2019-04-03T05:04:42.702Z,73.09
2019-04-03T05:07:11.895Z,73.67
2019-04-03T05:09:40.788Z,74.12
2019-04-03T05:12:11.624Z,74.65
2019-04-03T05:14:40.515Z,74.85
2019-04-03T05:17:10.431Z,75.22
2019-04-03T05:19:39.457Z,75.52
2019-04-03T05:22:08.522Z,76.35
2019-04-03T05:24:37.515Z,76.27
2019-04-03T05:27:07.852Z,76.42
2019-04-03T05:29:37.241Z,74.83
2019-04-03T05:32:06.460Z,74.57
2019-04-03T05:34:35.844Z,73.61
2019-04-03T05:37:05.129Z,74.10
2019-04-03T05:39:35.784Z,74.34
2019-04-03T05:42:05.078Z,74.34
2019-04-03T05:44:35.091Z,75.76
2019-04-03T05:47:04.156Z,73.51
2019-04-03T05:49:34.511Z,75.90
2019-04-03T05:52:04.066Z,75.50
2019-04-03T05:54:33.846Z,74.05
2019-04-03T05:57:02.963Z,73.82
2019-04-03T05:59:33.695Z,73.08
2019-04-03T06:02:13.855Z,73.48
2019-04-03T06:04:33.287Z,73.23
2019-04-03T06:07:02.177Z,73.00
2019-04-03T06:09:31.067Z,72.23
2019-04-03T06:11:59.960Z,73.42
2019-04-03T06:14:29.977Z,75.44
2019-04-03T06:16:58.869Z,73.54
2019-04-03T06:19:27.765Z,72.71
2019-04-03T06:21:56.657Z,72.01
2019-04-03T06:24:25.724Z,72.45
2019-04-03T06:26:54.559Z,73.41
2019-04-03T06:29:23.729Z,74.23
2019-04-03T06:31:52.526Z,73.91
2019-04-03T06:34:21.539Z,70.99
2019-04-03T06:36:51.174Z,70.39
2019-04-03T06:39:22.299Z,71.37
2019-04-03T06:41:51.148Z,70.75
2019-04-03T06:44:20.521Z,70.04
2019-04-03T06:46:53.650Z,69.89
2019-04-03T06:49:22.549Z,69.96
2019-04-03T06:51:51.335Z,71.73
2019-04-03T06:54:20.225Z,71.40
2019-04-03T06:56:52.086Z,71.96
2019-04-03T06:59:19.777Z,72.65
2019-04-03T07:01:48.739Z,74.33
2019-04-03T07:04:17.839Z,71.77
2019-04-03T07:06:46.729Z,71.33
2019-04-03T07:09:23.066Z,70.73
2019-04-03T07:11:46.354Z,70.77
2019-04-03T07:14:15.247Z,70.13
2019-04-03T07:16:44.381Z,71.05
2019-04-03T07:19:13.333Z,73.03
2019-04-03T07:21:42.333Z,70.92
2019-04-03T07:24:12.171Z,72.14
2019-04-03T07:26:41.138Z,71.43
2019-04-03T07:29:12.102Z,71.57
2019-04-03T07:31:41.987Z,70.53
2019-04-03T07:34:11.323Z,69.94
2019-04-03T07:36:44.662Z,71.19
2019-04-03T07:39:13.278Z,69.60
2019-04-03T07:41:42.556Z,67.94
2019-04-03T07:44:11.571Z,67.39
2019-04-03T07:46:43.682Z,66.20
2019-04-03T07:49:14.263Z,66.20
2019-04-03T07:51:44.471Z,65.12
2019-04-03T07:54:13.384Z,65.78
2019-04-03T07:56:42.273Z,65.22
2019-04-03T07:59:11.264Z,65.22
2019-04-03T08:01:41.345Z,64.43
2019-04-03T08:04:10.949Z,64.32
2019-04-03T08:06:40.213Z,65.00
2019-04-03T08:09:10.499Z,65.00
2019-04-03T08:11:39.410Z,64.22
2019-04-03T08:14:09.091Z,64.44
2019-04-03T08:16:41.943Z,64.15
2019-04-03T08:19:11.094Z,64.36
2019-04-03T08:21:40.295Z,62.98
2019-04-03T08:24:09.904Z,61.75
2019-04-03T08:26:39.188Z,61.44
2019-04-03T08:29:08.605Z,61.39
2019-04-03T08:31:37.808Z,61.29
2019-04-03T08:34:15.988Z,61.13
2019-04-03T08:36:39.508Z,60.95
2019-04-03T08:39:09.497Z,60.83
2019-04-03T08:41:38.726Z,61.22
2019-04-03T08:44:09.186Z,60.31
2019-04-03T08:46:38.690Z,60.50
2019-04-03T08:49:09.622Z,62.56
2019-04-03T08:51:38.767Z,62.59
2019-04-03T08:54:10.232Z,61.45
2019-04-03T08:56:38.637Z,63.17
2019-04-03T08:59:08.216Z,63.20
2019-04-03T09:01:37.435Z,62.63
2019-04-03T09:04:06.296Z,63.04
2019-04-03T09:06:35.189Z,61.79
2019-04-03T09:09:06.537Z,60.88
2019-04-03T09:11:36.320Z,60.73
2019-04-03T09:14:06.204Z,61.81
2019-04-03T09:16:35.059Z,62.65
2019-04-03T09:19:03.957Z,61.47
2019-04-03T09:21:32.992Z,60.51
2019-04-03T09:24:01.800Z,61.66
2019-04-03T09:26:34.556Z,60.72
2019-04-03T09:29:01.244Z,61.08
2019-04-03T09:31:31.469Z,61.30
2019-04-03T09:34:00.363Z,59.47
2019-04-03T09:36:29.260Z,59.37
2019-04-03T09:38:58.276Z,58.16
2019-04-03T09:41:27.305Z,60.45
2019-04-03T09:43:56.733Z,61.56
2019-04-03T09:46:25.768Z,63.64
2019-04-03T09:48:54.766Z,64.43
2019-04-03T09:51:24.114Z,63.37
2019-04-03T09:53:53.028Z,64.99
2019-04-03T09:56:22.209Z,64.79
2019-04-03T09:58:51.218Z,65.74
2019-04-03T10:01:20.111Z,68.38
2019-04-03T10:03:49.265Z,67.90
2019-04-03T10:06:18.200Z,69.51
2019-04-03T10:08:47.165Z,70.55
2019-04-03T10:11:19.402Z,70.96
2019-04-03T10:13:46.621Z,72.52
2019-04-03T10:16:16.815Z,73.42
2019-04-03T10:18:45.833Z,74.10
2019-04-03T10:21:14.720Z,75.63
2019-04-03T10:23:43.612Z,73.77
2019-04-03T10:26:12.502Z,73.91
2019-04-03T10:28:42.548Z,72.64
2019-04-03T10:31:12.333Z,72.74
2019-04-03T10:33:41.223Z,73.41
2019-04-03T10:36:11.954Z,74.67
2019-04-03T10:38:42.687Z,74.71
2019-04-03T10:41:14.247Z,73.74
2019-04-03T10:43:43.242Z,74.53
2019-04-03T10:46:12.439Z,74.96
2019-04-03T10:48:41.368Z,74.41
2019-04-03T10:51:10.739Z,75.14
2019-04-03T10:53:39.938Z,75.45
2019-04-03T10:56:10.058Z,76.01
2019-04-03T10:58:42.234Z,75.29
2019-04-03T11:01:10.603Z,75.53
2019-04-03T11:03:39.543Z,77.06
2019-04-03T11:06:09.464Z,76.99
2019-04-03T11:08:38.406Z,78.45
2019-04-03T11:11:08.316Z,79.90
2019-04-03T11:13:37.247Z,80.77
2019-04-03T11:16:07.067Z,80.41
2019-04-03T11:18:35.912Z,81.20
2019-04-03T11:21:04.903Z,81.65
2019-04-03T11:23:39.004Z,81.69
2019-04-03T11:26:04.810Z,81.67
2019-04-03T11:28:37.064Z,82.54
2019-04-03T11:31:04.153Z,82.58
2019-04-03T11:33:33.057Z,81.66
2019-04-03T11:36:03.496Z,81.43
2019-04-03T11:38:32.363Z,81.78
2019-04-03T11:41:13.100Z,81.75
2019-04-03T11:43:33.374Z,82.06
2019-04-03T11:46:02.489Z,82.21
2019-04-03T11:48:31.622Z,82.63
2019-04-03T11:51:00.672Z,81.68
2019-04-03T11:53:29.602Z,81.44
2019-04-03T11:55:58.680Z,81.84
2019-04-03T11:58:27.661Z,81.81
2019-04-03T12:00:56.579Z,81.72
2019-04-03T12:03:25.479Z,80.87
2019-04-03T12:05:54.682Z,79.38
2019-04-03T12:08:23.829Z,78.64
2019-04-03T12:10:52.956Z,78.86
2019-04-03T12:13:22.067Z,77.15
2019-04-03T12:15:53.533Z,77.40
2019-04-03T12:18:21.922Z,77.58
2019-04-03T12:20:50.889Z,76.42
2019-04-03T12:23:19.778Z,78.56
2019-04-03T12:25:48.673Z,79.50
2019-04-03T12:28:19.546Z,76.59
2019-04-03T12:30:50.545Z,76.37
2019-04-03T12:33:21.217Z,76.57
2019-04-03T12:35:49.975Z,77.10
2019-04-03T12:38:20.457Z,77.46
2019-04-03T12:40:49.388Z,77.08
2019-04-03T12:43:18.654Z,75.72
2019-04-03T12:45:47.954Z,77.01
2019-04-03T12:48:17.381Z,76.43
2019-04-03T12:50:47.413Z,76.48
2019-04-03T12:53:17.299Z,76.63
2019-04-03T12:55:46.648Z,77.54
2019-04-03T12:58:15.601Z,75.77
2019-04-03T13:00:46.140Z,75.53
2019-04-03T13:03:15.758Z,76.48
2019-04-03T13:05:45.339Z,77.17
2019-04-03T13:08:15.384Z,75.76
2019-04-03T13:10:47.587Z,75.39
2019-04-03T13:13:14.908Z,75.29
2019-04-03T13:15:43.902Z,76.80
2019-04-03T13:18:13.418Z,76.67
2019-04-03T13:20:42.363Z,76.16
2019-04-03T13:23:13.311Z,75.76
2019-04-03T13:25:43.275Z,74.65
2019-04-03T13:28:12.676Z,77.51
2019-04-03T13:30:43.408Z,78.08
2019-04-03T13:33:12.248Z,77.36
2019-04-03T13:35:41.277Z,76.73
2019-04-03T13:38:11.092Z,76.53
2019-04-03T13:40:39.983Z,77.15
2019-04-03T13:43:10.322Z,76.79
2019-04-03T13:45:40.020Z,75.87
2019-04-03T13:48:12.745Z,75.46
2019-04-03T13:50:40.205Z,74.96
2019-04-03T13:53:09.769Z,75.83
2019-04-03T13:55:40.218Z,76.12
2019-04-03T13:58:12.670Z,76.89
2019-04-03T14:00:41.659Z,76.76
2019-04-03T14:03:11.539Z,76.59
2019-04-03T14:05:42.661Z,76.41
2019-04-03T14:08:13.594Z,76.20
2019-04-03T14:10:42.451Z,77.17
2019-04-03T14:13:13.797Z,77.76
2019-04-03T14:15:42.693Z,79.01
2019-04-03T14:18:12.093Z,79.15
2019-04-03T14:20:42.526Z,80.61
2019-04-03T14:23:12.229Z,78.15
2019-04-03T14:25:41.225Z,77.12
2019-04-03T14:28:10.631Z,76.50
2019-04-03T14:30:39.524Z,77.18
2019-04-03T14:33:08.717Z,78.92
2019-04-03T14:35:48.836Z,78.37
2019-04-03T14:38:11.688Z,79.97
2019-04-03T14:40:39.646Z,79.92
2019-04-03T14:43:08.990Z,78.00
2019-04-03T14:45:39.524Z,77.71
2019-04-03T14:48:09.269Z,77.15
2019-04-03T14:50:40.282Z,77.19
2019-04-03T14:53:09.984Z,77.74
2019-04-03T14:55:47.314Z,77.31
2019-04-03T14:58:10.858Z,77.86
2019-04-03T15:00:40.238Z,79.58
2019-04-03T15:03:10.369Z,78.46
2019-04-03T15:05:42.491Z,79.44
2019-04-03T15:08:11.103Z,78.55
2019-04-03T15:10:40.441Z,77.89
2019-04-03T15:13:13.718Z,78.04
2019-04-03T15:15:42.382Z,77.72
2019-04-03T15:18:11.493Z,78.93
2019-04-03T15:20:40.487Z,79.66
2019-04-03T15:23:12.142Z,80.01
2019-04-03T15:25:42.648Z,79.92
2019-04-03T15:28:12.073Z,79.78
2019-04-03T15:30:43.068Z,78.58
2019-04-03T15:33:12.684Z,78.42
2019-04-03T15:35:41.716Z,78.60
2019-04-03T15:38:13.425Z,78.60
2019-04-03T15:40:41.903Z,79.48
2019-04-03T15:43:16.149Z,80.10
2019-04-03T15:45:44.332Z,79.40
2019-04-03T15:48:13.236Z,78.34
2019-04-03T15:50:42.147Z,77.69
2019-04-03T15:53:11.567Z,79.45
2019-04-03T15:55:40.631Z,78.90
2019-04-03T15:58:09.721Z,78.30
2019-04-03T16:00:39.165Z,76.78
2019-04-03T16:03:09.552Z,76.99
2019-04-03T16:05:38.639Z,77.11
2019-04-03T16:08:10.008Z,77.13
2019-04-03T16:10:38.895Z,77.50
2019-04-03T16:13:08.396Z,77.70
2019-04-03T16:15:37.771Z,78.16
2019-04-03T16:18:08.350Z,77.36
2019-04-03T16:20:37.421Z,77.81
2019-04-03T16:23:06.957Z,77.77
2019-04-03T16:25:36.023Z,79.42
2019-04-03T16:28:05.232Z,80.25
2019-04-03T16:30:34.324Z,79.39
2019-04-03T16:33:04.955Z,80.41
2019-04-03T16:35:34.160Z,80.13
2019-04-03T16:38:03.586Z,79.98
2019-04-03T16:40:36.991Z,79.81
2019-04-03T16:43:04.811Z,79.89
2019-04-03T16:45:37.654Z,79.06
2019-04-03T16:48:07.615Z,79.58
2019-04-03T16:50:36.913Z,79.54
2019-04-03T16:53:08.062Z,80.20
2019-04-03T16:55:38.593Z,79.86
2019-04-03T16:58:08.310Z,79.67
2019-04-03T17:00:41.392Z,80.30
2019-04-03T17:03:12.132Z,79.87
2019-04-03T17:05:41.508Z,78.16
2019-04-03T17:08:12.312Z,79.74
2019-04-03T17:10:41.366Z,79.80
2019-04-03T17:13:11.254Z,79.29
2019-04-03T17:15:40.730Z,80.12
2019-04-03T17:18:10.872Z,79.74
2019-04-03T17:20:39.794Z,80.25
2019-04-03T17:23:11.059Z,80.49
2019-04-03T17:25:48.217Z,80.18
2019-04-03T17:28:11.587Z,79.62
2019-04-03T17:30:41.911Z,78.85
2019-04-03T17:33:11.214Z,79.43
2019-04-03T17:35:40.249Z,79.08
2019-04-03T17:38:10.060Z,78.11
2019-04-03T17:40:38.911Z,78.58
2019-04-03T17:43:09.233Z,78.02
2019-04-03T17:45:39.250Z,80.20
2019-04-03T17:48:08.973Z,80.20
2019-04-03T17:50:37.870Z,78.81
2019-04-03T17:53:07.089Z,78.31
2019-04-03T17:55:36.047Z,79.40
2019-04-03T17:58:05.050Z,79.39
2019-04-03T18:00:34.037Z,79.26
2019-04-03T18:03:02.930Z,78.79
2019-04-03T18:05:33.209Z,79.05
2019-04-03T18:08:02.351Z,79.51
2019-04-03T18:10:32.670Z,77.85
2019-04-03T18:13:01.560Z,79.30
2019-04-03T18:15:32.778Z,78.71
2019-04-03T18:18:02.836Z,80.89
2019-04-03T18:20:31.508Z,80.88
2019-04-03T18:23:00.400Z,81.30
2019-04-03T18:25:29.357Z,80.05
2019-04-03T18:27:59.828Z,80.41
2019-04-03T18:30:29.023Z,80.49
2019-04-03T18:32:57.916Z,80.57
2019-04-03T18:35:26.812Z,81.29
2019-04-03T18:37:55.604Z,81.46
2019-04-03T18:40:24.586Z,81.83
2019-04-03T18:42:53.501Z,80.74
2019-04-03T18:45:25.395Z,80.78
2019-04-03T18:47:52.898Z,82.07
2019-04-03T18:50:21.939Z,81.78
2019-04-03T18:52:50.889Z,81.62
2019-04-03T18:55:19.877Z,81.10
2019-04-03T18:57:50.232Z,81.06
2019-04-03T19:00:20.849Z,80.73
2019-04-03T19:02:51.365Z,80.51
2019-04-03T19:05:20.363Z,81.04
2019-04-03T19:07:49.355Z,80.54
2019-04-03T19:10:22.907Z,81.37
2019-04-03T19:12:51.947Z,81.97
2019-04-03T19:15:22.378Z,81.85
2019-04-03T19:18:00.091Z,80.83
2019-04-03T19:20:21.800Z,81.81
2019-04-03T19:23:01.994Z,80.50
2019-04-03T19:25:21.319Z,81.08
2019-04-03T19:27:52.255Z,83.01
2019-04-03T19:30:21.458Z,81.38
2019-04-03T19:32:50.361Z,80.88
2019-04-03T19:35:19.238Z,82.02
2019-04-03T19:37:48.132Z,82.67
2019-04-03T19:40:17.125Z,83.76
2019-04-03T19:42:48.768Z,84.06
2019-04-03T19:45:16.765Z,82.99
2019-04-03T19:47:45.744Z,81.97
2019-04-03T19:50:14.741Z,81.27
2019-04-03T19:52:43.701Z,82.02
2019-04-03T19:55:23.168Z,81.84
2019-04-03T19:57:51.325Z,81.21
2019-04-03T20:00:20.916Z,81.22
2019-04-03T20:02:51.377Z,82.06
2019-04-03T20:05:20.271Z,82.63
2019-04-03T20:07:49.165Z,81.77
2019-04-03T20:10:18.159Z,81.75
2019-04-03T20:12:48.069Z,80.96
2019-04-03T20:15:17.063Z,80.89
2019-04-03T20:17:46.057Z,81.72
2019-04-03T20:20:15.049Z,80.48
2019-04-03T20:22:43.947Z,81.50
2019-04-03T20:25:15.198Z,81.11
2019-04-03T20:27:47.072Z,83.17
2019-04-03T20:30:15.124Z,82.59
2019-04-03T20:32:45.552Z,82.68
2019-04-03T20:35:14.444Z,82.34
2019-04-03T20:37:44.080Z,83.34
2019-04-03T20:40:17.000Z,82.16
2019-04-03T20:42:47.057Z,83.04
2019-04-03T20:45:18.774Z,82.59
2019-04-03T20:47:46.480Z,83.08
2019-04-03T20:50:16.234Z,82.45
2019-04-03T20:52:46.199Z,81.06
2019-04-03T20:55:15.817Z,81.80
2019-04-03T20:57:54.860Z,81.53
2019-04-03T21:00:18.545Z,81.69
2019-04-03T21:02:48.021Z,82.50
2019-04-03T21:05:18.726Z,82.54
2019-04-03T21:07:47.434Z,81.34
2019-04-03T21:10:17.553Z,81.84
2019-04-03T21:12:47.471Z,81.87
2019-04-03T21:15:16.360Z,81.93
2019-04-03T21:17:45.273Z,82.00
2019-04-03T21:20:14.346Z,82.05
2019-04-03T21:22:43.239Z,82.15
2019-04-03T21:25:12.847Z,83.36
2019-04-03T21:27:41.740Z,82.70
2019-04-03T21:30:12.339Z,82.64
2019-04-03T21:32:41.160Z,82.64
2019-04-03T21:35:10.972Z,81.83
2019-04-03T21:37:40.644Z,81.09
2019-04-03T21:40:10.494Z,81.47
2019-04-03T21:42:39.389Z,81.74
2019-04-03T21:45:08.590Z,81.93
2019-04-03T21:47:37.475Z,81.57
2019-04-03T21:50:07.193Z,83.13
2019-04-03T21:52:36.089Z,82.11
2019-04-03T21:55:08.663Z,82.00
2019-04-03T21:57:38.461Z,80.87
2019-04-03T22:00:12.990Z,82.02
2019-04-03T22:02:40.350Z,81.71
2019-04-03T22:05:11.071Z,82.31
2019-04-03T22:07:39.870Z,82.00
2019-04-03T22:10:10.177Z,81.36
2019-04-03T22:12:39.090Z,81.02
2019-04-03T22:15:08.897Z,81.86
2019-04-03T22:17:37.788Z,82.69
2019-04-03T22:20:07.855Z,82.29
2019-04-03T22:22:36.804Z,82.87
2019-04-03T22:25:08.565Z,81.98
2019-04-03T22:27:36.631Z,82.20
2019-04-03T22:30:06.061Z,82.04
2019-04-03T22:32:34.921Z,82.71
2019-04-03T22:35:04.532Z,83.03
2019-04-03T22:37:35.124Z,82.08
2019-04-03T22:40:04.739Z,83.72
2019-04-03T22:42:33.563Z,84.96
2019-04-03T22:45:02.458Z,83.13
2019-04-03T22:47:31.343Z,82.79
2019-04-03T22:50:00.234Z,83.20
2019-04-03T22:52:29.125Z,83.48
2019-04-03T22:54:58.014Z,83.62
2019-04-03T22:57:29.470Z,81.56
2019-04-03T22:59:58.457Z,81.64
2019-04-03T23:02:27.350Z,81.86
2019-04-03T23:04:56.343Z,82.44
2019-04-03T23:07:25.261Z,83.17
2019-04-03T23:09:56.500Z,81.31
2019-04-03T23:12:26.192Z,81.31
2019-04-03T23:14:55.088Z,81.41
2019-04-03T23:17:23.981Z,81.54
2019-04-03T23:19:52.869Z,81.37
2019-04-03T23:22:21.758Z,81.00
2019-04-03T23:24:50.649Z,81.09
2019-04-03T23:27:19.541Z,81.66
2019-04-03T23:29:48.432Z,82.00
2019-04-03T23:32:18.552Z,81.54
2019-04-03T23:34:49.438Z,81.89
2019-04-03T23:37:18.076Z,81.64
2019-04-03T23:39:47.068Z,82.14
2019-04-03T23:42:15.961Z,82.02
2019-04-03T23:44:44.855Z,82.16
2019-04-03T23:47:16.360Z,81.23
2019-04-03T23:49:44.292Z,81.94
2019-04-03T23:52:13.164Z,81.76
2019-04-03T23:54:42.057Z,81.46
2019-04-03T23:57:11.459Z,81.72
2019-04-03T23:59:40.346Z,81.75
